Time;durP1;ratioP1;P1;durP2;ratioP2;P2;SDS_P1;SDS_P2;PMS_P1;PMS_P2;Temp;Humidity;BMP_temperature;BMP_pressure;BME280_temperature;BME280_humidity;BME280_pressure;Samples;Min_cycle;Max_cycle;Signal;HPM_P1;HPM_P2
2023/01/17 00:02:06;;;;;;;1.67;0.30;;;;;;;;;;5090761;28;20039;-82
2023/01/17 00:10:15;;;;;;;1.00;0.22;;;;;;;;;;5064890;28;20198;-82
2023/01/17 00:13:01;;;;;;;0.32;0.13;;;;;;;;;;5091877;27;20031;-82
2023/01/17 00:15:28;;;;;;;1.95;0.32;;;;;;;;;;5088232;28;20102;-82
2023/01/17 00:17:54;;;;;;;0.90;0.20;;;;;;;;;;5091312;28;20424;-82
2023/01/17 00:26:14;;;;;;;0.52;0.10;;;;;;;;;;5085830;28;20043;-82
2023/01/17 01:35:35;;;;;;;0.30;0.20;;;;;;;;;;5085937;28;20035;-82
2023/01/17 01:38:01;;;;;;;0.73;0.30;;;;;;;;;;5084088;28;20027;-82
2023/01/17 01:40:26;;;;;;;0.40;0.20;;;;;;;;;;5086449;28;20028;-82
2023/01/17 01:42:58;;;;;;;1.73;0.45;;;;;;;;;;5086845;28;20283;-82
2023/01/17 01:45:29;;;;;;;0.22;0.22;;;;;;;;;;5090395;28;20383;-82
2023/01/17 01:48:03;;;;;;;1.17;0.40;;;;;;;;;;5085865;28;20035;-82
2023/01/17 01:50:30;;;;;;;0.88;0.30;;;;;;;;;;5086484;28;20086;-82
2023/01/17 01:52:59;;;;;;;1.30;0.60;;;;;;;;;;5086012;28;20472;-82
2023/01/17 01:55:30;;;;;;;0.70;0.35;;;;;;;;;;5083971;28;20043;-83
2023/01/17 01:58:01;;;;;;;1.38;0.40;;;;;;;;;;5092225;28;20092;-82
2023/01/17 02:00:35;;;;;;;0.82;0.40;;;;;;;;;;5090582;28;20096;-82
2023/01/17 02:03:06;;;;;;;0.98;0.45;;;;;;;;;;5090644;28;20024;-82
2023/01/17 02:05:33;;;;;;;0.73;0.40;;;;;;;;;;5085386;28;20036;-82
2023/01/17 02:08:06;;;;;;;2.85;0.70;;;;;;;;;;5094239;28;20032;-82
2023/01/17 02:10:37;;;;;;;0.63;0.38;;;;;;;;;;5092624;28;20119;-82
2023/01/17 02:13:03;;;;;;;2.10;0.60;;;;;;;;;;5101629;27;20046;-82
2023/01/17 02:15:43;;;;;;;1.30;0.50;;;;;;;;;;5100199;28;20475;-82
2023/01/17 02:18:27;;;;;;;0.95;0.50;;;;;;;;;;5104738;28;20479;-82
2023/01/17 02:21:16;;;;;;;0.85;0.50;;;;;;;;;;5094924;28;20486;-82
2023/01/17 02:24:05;;;;;;;1.67;0.60;;;;;;;;;;5103242;28;20472;-82
2023/01/17 02:26:47;;;;;;;0.77;0.38;;;;;;;;;;5093131;28;20105;-82
2023/01/17 02:29:40;;;;;;;1.23;0.50;;;;;;;;;;5095687;28;20863;-82
2023/01/17 02:32:28;;;;;;;2.70;0.60;;;;;;;;;;5091622;28;20803;-82
2023/01/17 02:35:19;;;;;;;1.73;0.57;;;;;;;;;;5089370;28;20044;-82
2023/01/17 02:37:50;;;;;;;2.25;0.98;;;;;;;;;;5092832;28;20016;-82
2023/01/17 02:40:25;;;;;;;3.35;0.98;;;;;;;;;;5087620;28;20032;-82
2023/01/17 02:42:56;;;;;;;3.15;0.60;;;;;;;;;;5092773;28;20499;-82
2023/01/17 02:45:21;;;;;;;0.70;0.50;;;;;;;;;;5093734;28;20072;-82
2023/01/17 02:47:47;;;;;;;0.90;0.60;;;;;;;;;;5091142;28;20112;-82
2023/01/17 02:50:41;;;;;;;4.07;0.77;;;;;;;;;;5088370;28;20032;-83
2023/01/17 02:53:30;;;;;;;1.25;0.75;;;;;;;;;;5088747;28;20039;-82
2023/01/17 02:56:16;;;;;;;0.90;0.65;;;;;;;;;;5091161;28;20114;-82
2023/01/17 02:59:06;;;;;;;1.70;0.75;;;;;;;;;;5088980;28;20122;-82
2023/01/17 03:01:50;;;;;;;1.05;0.70;;;;;;;;;;5085848;28;20088;-82
2023/01/17 03:04:47;;;;;;;3.05;0.70;;;;;;;;;;5097336;28;20570;-82
2023/01/17 03:07:16;;;;;;;1.63;0.77;;;;;;;;;;5089718;28;20349;-82
2023/01/17 03:09:49;;;;;;;2.13;0.60;;;;;;;;;;5090131;28;20426;-81
2023/01/17 03:12:14;;;;;;;2.47;0.77;;;;;;;;;;5099354;28;20119;-82
2023/01/17 03:14:40;;;;;;;1.80;0.65;;;;;;;;;;5097455;28;20440;-82
2023/01/17 03:17:05;;;;;;;5.78;1.13;;;;;;;;;;5087516;28;20044;-82
2023/01/17 03:19:31;;;;;;;1.30;0.65;;;;;;;;;;5073975;28;20036;-82
2023/01/17 03:21:56;;;;;;;4.03;0.90;;;;;;;;;;5088663;28;20111;-83
2023/01/17 03:24:22;;;;;;;1.08;0.60;;;;;;;;;;5086624;28;20057;-82
2023/01/17 03:26:47;;;;;;;2.35;0.52;;;;;;;;;;5090588;28;20391;-82
2023/01/17 03:29:14;;;;;;;2.05;0.50;;;;;;;;;;5094217;28;20120;-82
2023/01/17 03:31:39;;;;;;;1.88;0.80;;;;;;;;;;5097016;28;20066;-82
2023/01/17 03:34:05;;;;;;;2.10;0.40;;;;;;;;;;5095486;28;20097;-83
2023/01/17 03:36:30;;;;;;;1.67;0.40;;;;;;;;;;5093272;28;20483;-82
2023/01/17 03:38:55;;;;;;;0.60;0.20;;;;;;;;;;5094946;28;20024;-82
2023/01/17 03:41:21;;;;;;;0.80;0.28;;;;;;;;;;5096271;28;20073;-82
2023/01/17 03:43:46;;;;;;;0.60;0.17;;;;;;;;;;5097218;28;20066;-82
2023/01/17 03:46:27;;;;;;;2.58;0.30;;;;;;;;;;5098294;28;20040;-82
2023/01/17 03:48:53;;;;;;;0.30;0.30;;;;;;;;;;5091706;28;20073;-82
2023/01/17 03:51:19;;;;;;;2.05;0.40;;;;;;;;;;5096241;28;20030;-82
2023/01/17 03:53:45;;;;;;;0.82;0.40;;;;;;;;;;5097129;28;20032;-83
2023/01/17 03:56:11;;;;;;;2.58;0.50;;;;;;;;;;5095617;28;20403;-82
2023/01/17 03:58:37;;;;;;;1.05;0.57;;;;;;;;;;5091392;28;20039;-82
2023/01/17 04:01:02;;;;;;;1.63;0.55;;;;;;;;;;5098554;28;20032;-82
2023/01/17 04:03:27;;;;;;;6.07;0.63;;;;;;;;;;5099195;28;20067;-82
2023/01/17 04:05:53;;;;;;;1.70;0.60;;;;;;;;;;5089170;28;20030;-83
2023/01/17 04:08:18;;;;;;;1.83;0.60;;;;;;;;;;5098334;28;20024;-82
2023/01/17 04:10:43;;;;;;;0.63;0.47;;;;;;;;;;5081378;27;20039;-82
2023/01/17 04:13:09;;;;;;;1.83;0.57;;;;;;;;;;5090777;27;20028;-82
2023/01/17 04:15:34;;;;;;;1.17;0.70;;;;;;;;;;5092175;28;20084;-82
2023/01/17 04:18:00;;;;;;;1.30;0.52;;;;;;;;;;5085389;28;20024;-81
2023/01/17 04:20:36;;;;;;;1.42;0.60;;;;;;;;;;5093043;28;20043;-82
2023/01/17 04:23:03;;;;;;;2.45;0.65;;;;;;;;;;5094168;28;20024;-83
2023/01/17 04:25:29;;;;;;;0.77;0.50;;;;;;;;;;5089424;28;20193;-82
2023/01/17 04:27:56;;;;;;;1.67;0.52;;;;;;;;;;5099885;28;20028;-82
2023/01/17 04:30:21;;;;;;;2.72;0.50;;;;;;;;;;5092965;28;20719;-83
2023/01/17 04:32:47;;;;;;;0.95;0.45;;;;;;;;;;5093259;28;20034;-83
2023/01/17 04:35:12;;;;;;;0.63;0.47;;;;;;;;;;5097572;28;20039;-82
2023/01/17 04:37:38;;;;;;;2.90;0.98;;;;;;;;;;5097102;28;20052;-82
2023/01/17 04:40:04;;;;;;;2.83;0.77;;;;;;;;;;5097723;28;20125;-82
2023/01/17 04:42:29;;;;;;;1.25;0.40;;;;;;;;;;5102410;28;20407;-82
2023/01/17 04:44:55;;;;;;;1.63;0.47;;;;;;;;;;5100584;28;20023;-82
2023/01/17 04:47:20;;;;;;;1.58;0.45;;;;;;;;;;5099839;28;20073;-82
2023/01/17 04:49:46;;;;;;;0.60;0.30;;;;;;;;;;5102001;28;20024;-83
2023/01/17 04:52:12;;;;;;;3.25;0.70;;;;;;;;;;5098654;28;20514;-82
2023/01/17 04:54:37;;;;;;;2.47;0.47;;;;;;;;;;5095571;28;20067;-83
2023/01/17 04:57:03;;;;;;;0.70;0.30;;;;;;;;;;5097799;28;20110;-83
2023/01/17 04:59:28;;;;;;;1.20;0.45;;;;;;;;;;5092409;28;20023;-83
2023/01/17 05:01:54;;;;;;;0.85;0.30;;;;;;;;;;5095478;28;20032;-82
2023/01/17 05:04:19;;;;;;;0.85;0.28;;;;;;;;;;5102019;28;20425;-82
2023/01/17 05:06:44;;;;;;;0.88;0.30;;;;;;;;;;5071365;28;20024;-83
2023/01/17 05:09:10;;;;;;;0.70;0.40;;;;;;;;;;5093427;28;20036;-82
2023/01/17 05:11:35;;;;;;;2.83;0.52;;;;;;;;;;5095531;27;20115;-83
2023/01/17 05:14:01;;;;;;;2.53;0.45;;;;;;;;;;5090703;28;20054;-82
2023/01/17 05:16:26;;;;;;;0.73;0.30;;;;;;;;;;5093590;28;20111;-82
2023/01/17 05:18:52;;;;;;;1.92;0.40;;;;;;;;;;5095185;28;20041;-82
2023/01/17 05:21:18;;;;;;;1.67;0.30;;;;;;;;;;5092825;28;20034;-82
2023/01/17 05:23:44;;;;;;;1.58;0.30;;;;;;;;;;5093249;28;20723;-82
2023/01/17 05:26:09;;;;;;;1.40;0.50;;;;;;;;;;5091945;28;20026;-82
2023/01/17 05:28:35;;;;;;;1.20;0.40;;;;;;;;;;5095144;28;20030;-82
2023/01/17 05:31:00;;;;;;;0.90;0.40;;;;;;;;;;5098144;28;20030;-82
2023/01/17 05:33:26;;;;;;;0.95;0.40;;;;;;;;;;5097240;28;20023;-82
2023/01/17 05:35:51;;;;;;;1.48;0.40;;;;;;;;;;5090019;28;20032;-83
2023/01/17 05:38:17;;;;;;;1.90;0.38;;;;;;;;;;5091376;28;20571;-82
2023/01/17 05:40:42;;;;;;;2.20;0.50;;;;;;;;;;5095933;28;20065;-82
2023/01/17 05:43:08;;;;;;;1.88;0.43;;;;;;;;;;5092143;28;20055;-82
2023/01/17 05:45:33;;;;;;;2.80;0.52;;;;;;;;;;5088769;28;20031;-82
2023/01/17 05:47:59;;;;;;;5.25;0.70;;;;;;;;;;5096516;28;20054;-82
2023/01/17 05:50:28;;;;;;;1.65;0.70;;;;;;;;;;5095756;28;20027;-82
2023/01/17 05:52:59;;;;;;;1.30;0.80;;;;;;;;;;5093795;28;20114;-82
2023/01/17 05:55:26;;;;;;;2.55;0.90;;;;;;;;;;5089437;28;20057;-82
2023/01/17 05:57:52;;;;;;;5.25;1.30;;;;;;;;;;5089304;28;20039;-82
2023/01/17 06:00:18;;;;;;;1.95;0.80;;;;;;;;;;5097188;28;20020;-83
2023/01/17 06:02:44;;;;;;;3.47;1.02;;;;;;;;;;5088247;28;20486;-82
2023/01/17 06:05:10;;;;;;;2.35;1.10;;;;;;;;;;5095728;27;20020;-83
2023/01/17 06:07:37;;;;;;;4.10;1.52;;;;;;;;;;5093064;28;20740;-83
2023/01/17 06:10:03;;;;;;;4.15;1.35;;;;;;;;;;5098012;28;20364;-82
2023/01/17 06:12:28;;;;;;;3.67;1.35;;;;;;;;;;5096884;27;20023;-82
2023/01/17 06:14:54;;;;;;;3.80;1.30;;;;;;;;;;5091328;28;20028;-82
2023/01/17 06:17:19;;;;;;;5.30;1.90;;;;;;;;;;5093919;28;20558;-83
2023/01/17 06:19:44;;;;;;;5.22;2.05;;;;;;;;;;5086207;28;20123;-82
2023/01/17 06:22:10;;;;;;;5.60;1.90;;;;;;;;;;5089592;28;20039;-83
2023/01/17 06:24:35;;;;;;;5.70;1.50;;;;;;;;;;5093861;28;20055;-83
2023/01/17 06:27:01;;;;;;;3.95;1.77;;;;;;;;;;5095913;28;20032;-82
2023/01/17 06:29:26;;;;;;;4.93;2.20;;;;;;;;;;5094054;28;20027;-83
2023/01/17 06:31:52;;;;;;;8.43;2.03;;;;;;;;;;5086461;28;20456;-82
2023/01/17 06:34:17;;;;;;;3.80;1.90;;;;;;;;;;5106578;27;20467;-82
2023/01/17 06:36:43;;;;;;;4.40;2.00;;;;;;;;;;5091355;28;20063;-82
2023/01/17 06:39:09;;;;;;;5.45;1.98;;;;;;;;;;5084101;28;20419;-82
2023/01/17 06:41:34;;;;;;;6.40;1.98;;;;;;;;;;5083520;28;20055;-82
2023/01/17 06:44:00;;;;;;;4.30;1.95;;;;;;;;;;5086320;28;20520;-82
2023/01/17 06:46:25;;;;;;;5.45;2.25;;;;;;;;;;5084714;28;20035;-82
2023/01/17 06:48:51;;;;;;;5.38;2.28;;;;;;;;;;5089012;28;20395;-82
2023/01/17 06:51:16;;;;;;;6.25;1.85;;;;;;;;;;5092015;28;20759;-82
2023/01/17 06:53:42;;;;;;;4.22;1.92;;;;;;;;;;5077490;28;20069;-83
2023/01/17 06:56:08;;;;;;;5.32;1.92;;;;;;;;;;5087631;28;20028;-82
2023/01/17 06:58:34;;;;;;;7.47;2.50;;;;;;;;;;5085189;28;20150;-83
2023/01/17 07:01:08;;;;;;;3.63;1.73;;;;;;;;;;5086890;28;20399;-82
2023/01/17 07:03:34;;;;;;;4.05;1.98;;;;;;;;;;5095740;28;20099;-82
2023/01/17 07:06:01;;;;;;;5.50;2.10;;;;;;;;;;5093938;28;20049;-83
2023/01/17 07:08:27;;;;;;;5.68;2.15;;;;;;;;;;5090624;28;20027;-83
2023/01/17 07:11:01;;;;;;;4.78;2.28;;;;;;;;;;5097122;27;20046;-83
2023/01/17 07:13:27;;;;;;;4.50;2.05;;;;;;;;;;5095731;28;20102;-83
2023/01/17 07:15:53;;;;;;;4.22;2.17;;;;;;;;;;5096217;28;20480;-82
2023/01/17 07:18:22;;;;;;;5.00;2.33;;;;;;;;;;5092806;28;20102;-83
2023/01/17 07:20:48;;;;;;;5.85;2.90;;;;;;;;;;5091805;28;20024;-82
2023/01/17 07:23:13;;;;;;;4.90;2.60;;;;;;;;;;5088937;28;20717;-82
2023/01/17 07:25:39;;;;;;;6.82;2.80;;;;;;;;;;5092011;28;20032;-82
2023/01/17 07:28:04;;;;;;;6.30;3.58;;;;;;;;;;5092026;28;20112;-83
2023/01/17 07:30:29;;;;;;;8.57;3.25;;;;;;;;;;5091551;28;20024;-82
2023/01/17 07:32:55;;;;;;;6.78;3.65;;;;;;;;;;5099326;28;20035;-82
2023/01/17 07:35:25;;;;;;;7.40;3.97;;;;;;;;;;5097296;28;20506;-82
2023/01/17 07:37:51;;;;;;;7.18;4.63;;;;;;;;;;5097360;28;20031;-83
2023/01/17 07:40:19;;;;;;;7.07;4.18;;;;;;;;;;5093985;28;20028;-83
2023/01/17 07:42:45;;;;;;;10.15;4.22;;;;;;;;;;5094983;28;20039;-83
2023/01/17 07:45:12;;;;;;;6.85;4.38;;;;;;;;;;5092438;28;20031;-83
2023/01/17 07:47:38;;;;;;;7.93;4.85;;;;;;;;;;5091367;28;20036;-82
2023/01/17 07:50:04;;;;;;;8.88;5.25;;;;;;;;;;5095131;28;20036;-82
2023/01/17 07:52:30;;;;;;;10.88;5.57;;;;;;;;;;5094702;28;20031;-83
2023/01/17 07:54:55;;;;;;;8.57;5.28;;;;;;;;;;5091473;28;20031;-82
2023/01/17 07:57:20;;;;;;;8.80;4.65;;;;;;;;;;5094126;28;20387;-82
2023/01/17 07:59:46;;;;;;;9.23;5.28;;;;;;;;;;5093398;28;20026;-82
2023/01/17 08:02:22;;;;;;;9.15;5.43;;;;;;;;;;5105219;28;20042;-82
2023/01/17 08:04:48;;;;;;;11.00;6.20;;;;;;;;;;5098616;28;20019;-82
2023/01/17 08:07:15;;;;;;;10.10;5.50;;;;;;;;;;5095536;28;20111;-82
2023/01/17 08:09:41;;;;;;;9.55;5.72;;;;;;;;;;5096378;28;20540;-82
2023/01/17 08:12:07;;;;;;;9.77;5.60;;;;;;;;;;5096137;27;20028;-82
2023/01/17 08:14:32;;;;;;;10.48;5.38;;;;;;;;;;5094613;28;20141;-83
2023/01/17 08:17:11;;;;;;;8.95;5.60;;;;;;;;;;5095780;28;20024;-82
2023/01/17 08:19:39;;;;;;;7.95;5.50;;;;;;;;;;5104939;28;20110;-82
2023/01/17 08:22:04;;;;;;;7.25;4.93;;;;;;;;;;5094818;28;20423;-82
2023/01/17 08:24:30;;;;;;;10.25;5.05;;;;;;;;;;5102902;28;20035;-82
2023/01/17 08:26:56;;;;;;;8.02;5.07;;;;;;;;;;5102037;28;20023;-82
2023/01/17 08:29:22;;;;;;;10.48;4.82;;;;;;;;;;5097888;28;20073;-82
2023/01/17 08:31:48;;;;;;;10.88;5.15;;;;;;;;;;5095092;28;20035;-83
2023/01/17 08:34:13;;;;;;;8.63;5.07;;;;;;;;;;5094479;27;20088;-82
2023/01/17 08:36:41;;;;;;;7.15;4.68;;;;;;;;;;5093925;28;20024;-82
2023/01/17 08:39:08;;;;;;;9.23;5.03;;;;;;;;;;5092501;28;20069;-82
2023/01/17 08:41:33;;;;;;;8.02;5.22;;;;;;;;;;5099469;28;20031;-82
2023/01/17 08:43:58;;;;;;;8.82;5.07;;;;;;;;;;5099013;28;20028;-83
2023/01/17 08:46:24;;;;;;;8.80;5.07;;;;;;;;;;5096813;28;20035;-82
2023/01/17 08:48:54;;;;;;;9.98;4.75;;;;;;;;;;5098560;27;20031;-83
2023/01/17 08:51:20;;;;;;;9.45;5.30;;;;;;;;;;5095865;28;20042;-82
2023/01/17 08:53:47;;;;;;;8.55;5.57;;;;;;;;;;5096870;28;20567;-82
2023/01/17 08:56:12;;;;;;;7.72;4.97;;;;;;;;;;5096946;28;20016;-82
2023/01/17 08:58:40;;;;;;;6.97;4.20;;;;;;;;;;5096187;28;20072;-82
2023/01/17 09:01:06;;;;;;;7.63;4.68;;;;;;;;;;5099081;28;20035;-82
2023/01/17 09:03:32;;;;;;;9.38;4.72;;;;;;;;;;5096765;28;20035;-82
2023/01/17 09:06:03;;;;;;;7.32;4.32;;;;;;;;;;5092255;28;20035;-82
2023/01/17 09:08:29;;;;;;;8.52;4.95;;;;;;;;;;5095414;28;20020;-82
2023/01/17 09:10:54;;;;;;;10.02;5.07;;;;;;;;;;5096411;27;20530;-82
2023/01/17 09:13:20;;;;;;;9.80;5.07;;;;;;;;;;5098405;28;20034;-82
2023/01/17 09:15:45;;;;;;;9.02;5.15;;;;;;;;;;5101081;28;20027;-82
2023/01/17 09:18:10;;;;;;;7.88;4.80;;;;;;;;;;5102944;28;20062;-82
2023/01/17 09:20:36;;;;;;;6.93;4.38;;;;;;;;;;5097579;28;20012;-82
2023/01/17 09:23:02;;;;;;;7.40;4.40;;;;;;;;;;5102339;28;20030;-82
2023/01/17 09:25:28;;;;;;;7.43;4.38;;;;;;;;;;5094887;28;20119;-82
2023/01/17 09:27:53;;;;;;;8.30;4.45;;;;;;;;;;5097220;28;20108;-82
2023/01/17 09:30:19;;;;;;;8.10;4.57;;;;;;;;;;5094015;28;20035;-82
2023/01/17 09:32:51;;;;;;;8.18;4.50;;;;;;;;;;5097326;28;20028;-82
2023/01/17 09:35:17;;;;;;;7.03;4.07;;;;;;;;;;5095785;28;20476;-83
2023/01/17 09:37:42;;;;;;;7.97;3.72;;;;;;;;;;5096849;28;20020;-82
2023/01/17 09:40:14;;;;;;;9.85;5.15;;;;;;;;;;5093599;28;20039;-82
2023/01/17 09:42:40;;;;;;;9.38;4.32;;;;;;;;;;5094268;28;20058;-82
2023/01/17 09:45:15;;;;;;;6.65;4.20;;;;;;;;;;5097008;28;20059;-82
2023/01/17 09:47:50;;;;;;;7.38;4.13;;;;;;;;;;5098396;28;20749;-82
2023/01/17 09:50:30;;;;;;;7.07;4.03;;;;;;;;;;5096920;28;20103;-82
2023/01/17 09:53:02;;;;;;;7.70;3.95;;;;;;;;;;5095055;28;20253;-82
2023/01/17 09:55:38;;;;;;;5.78;3.80;;;;;;;;;;5096801;28;20107;-83
2023/01/17 09:58:13;;;;;;;9.38;4.10;;;;;;;;;;5095771;28;20027;-82
2023/01/17 10:01:17;;;;;;;6.38;3.58;;;;;;;;;;5092420;28;20028;-82
2023/01/17 10:04:16;;;;;;;6.88;3.67;;;;;;;;;;5113163;27;20028;-82
2023/01/17 10:06:54;;;;;;;7.75;4.10;;;;;;;;;;5099352;28;20464;-82
2023/01/17 10:09:28;;;;;;;6.15;3.70;;;;;;;;;;5092721;28;20024;-82
2023/01/17 10:11:53;;;;;;;7.93;4.47;;;;;;;;;;5097384;28;20529;-82
2023/01/17 10:14:56;;;;;;;9.63;4.78;;;;;;;;;;5099867;28;20031;-82
2023/01/17 10:17:56;;;;;;;6.53;3.88;;;;;;;;;;5099426;28;20059;-82
2023/01/17 10:20:37;;;;;;;7.82;4.45;;;;;;;;;;5091623;28;20110;-82
2023/01/17 10:23:33;;;;;;;10.30;4.22;;;;;;;;;;5094371;28;20031;-83
2023/01/17 10:26:07;;;;;;;8.15;4.03;;;;;;;;;;5098528;28;20451;-82
2023/01/17 10:28:48;;;;;;;9.15;5.00;;;;;;;;;;5098811;28;20019;-82
2023/01/17 10:31:26;;;;;;;7.30;4.15;;;;;;;;;;5097037;28;20027;-83
2023/01/17 10:33:54;;;;;;;11.50;4.63;;;;;;;;;;5094162;28;20027;-83
2023/01/17 10:36:24;;;;;;;7.00;4.47;;;;;;;;;;5096309;28;20422;-82
2023/01/17 10:39:00;;;;;;;9.50;4.35;;;;;;;;;;5105456;28;20019;-83
2023/01/17 10:41:35;;;;;;;7.80;4.05;;;;;;;;;;5093766;28;20024;-82
2023/01/17 10:44:32;;;;;;;7.20;4.13;;;;;;;;;;5091344;28;20034;-82
2023/01/17 10:47:11;;;;;;;7.47;3.92;;;;;;;;;;5083264;28;20506;-82
2023/01/17 10:49:39;;;;;;;6.78;3.78;;;;;;;;;;5090395;28;20025;-83
2023/01/17 10:52:38;;;;;;;7.00;4.03;;;;;;;;;;5096163;28;20050;-82
2023/01/17 10:55:25;;;;;;;7.43;3.83;;;;;;;;;;5105602;28;20020;-82
2023/01/17 10:57:52;;;;;;;7.00;4.43;;;;;;;;;;5091501;28;20059;-83
2023/01/17 11:00:33;;;;;;;10.38;4.75;;;;;;;;;;5110268;28;20120;-83
2023/01/17 11:02:59;;;;;;;7.68;4.18;;;;;;;;;;5091398;28;20031;-82
2023/01/17 11:05:28;;;;;;;8.77;4.97;;;;;;;;;;5092474;28;20077;-82
2023/01/17 11:08:03;;;;;;;11.80;4.97;;;;;;;;;;5095913;28;20080;-82
2023/01/17 11:10:35;;;;;;;11.48;4.40;;;;;;;;;;5093608;28;20502;-82
2023/01/17 11:13:03;;;;;;;8.53;4.40;;;;;;;;;;5093418;28;21321;-82
2023/01/17 11:15:32;;;;;;;9.98;4.85;;;;;;;;;;5095487;28;20049;-82
2023/01/17 11:18:04;;;;;;;8.75;4.38;;;;;;;;;;5095787;28;20116;-82
2023/01/17 11:20:38;;;;;;;8.18;4.22;;;;;;;;;;5093316;28;20035;-82
2023/01/17 11:23:17;;;;;;;6.95;4.32;;;;;;;;;;5097309;28;20478;-82
2023/01/17 11:25:56;;;;;;;8.63;4.03;;;;;;;;;;5092924;28;20453;-82
2023/01/17 11:28:29;;;;;;;7.43;4.22;;;;;;;;;;5093696;28;20019;-82
2023/01/17 11:31:02;;;;;;;6.93;4.07;;;;;;;;;;5094603;28;20056;-82
2023/01/17 11:33:33;;;;;;;8.65;3.88;;;;;;;;;;5094595;28;20112;-83
2023/01/17 11:35:58;;;;;;;7.22;3.80;;;;;;;;;;5094958;28;20436;-82
2023/01/17 11:38:24;;;;;;;8.63;4.00;;;;;;;;;;5095172;28;20110;-82
2023/01/17 11:40:52;;;;;;;6.93;3.88;;;;;;;;;;5091798;28;20410;-82
2023/01/17 11:43:26;;;;;;;7.97;3.92;;;;;;;;;;5095698;28;20459;-83
2023/01/17 11:46:14;;;;;;;6.28;3.85;;;;;;;;;;5100527;28;20023;-82
2023/01/17 11:48:40;;;;;;;8.35;3.92;;;;;;;;;;5093396;28;20484;-82
2023/01/17 11:51:26;;;;;;;9.32;3.63;;;;;;;;;;5098281;28;20036;-82
2023/01/17 11:53:53;;;;;;;8.98;3.70;;;;;;;;;;5102117;28;20024;-82
2023/01/17 11:56:31;;;;;;;7.85;4.20;;;;;;;;;;5097255;28;20418;-82
2023/01/17 11:59:24;;;;;;;9.20;3.83;;;;;;;;;;5094407;28;20096;-83
2023/01/17 12:02:07;;;;;;;6.40;3.70;;;;;;;;;;5096562;28;20127;-82
2023/01/17 12:04:45;;;;;;;6.10;3.58;;;;;;;;;;5107914;28;20027;-82
2023/01/17 12:07:26;;;;;;;6.15;3.22;;;;;;;;;;5098538;28;20406;-82
2023/01/17 12:10:18;;;;;;;6.20;3.40;;;;;;;;;;5107156;28;20027;-82
2023/01/17 12:16:29;;;;;;;4.95;2.45;;;;;;;;;;5095131;28;20079;-82
2023/01/17 12:19:32;;;;;;;6.38;2.60;;;;;;;;;;5103730;28;20082;-82
2023/01/17 12:22:15;;;;;;;7.00;3.35;;;;;;;;;;5096970;28;20020;-82
2023/01/17 12:24:49;;;;;;;5.90;2.08;;;;;;;;;;5099337;28;20039;-82
2023/01/17 12:27:27;;;;;;;4.43;2.47;;;;;;;;;;5094525;28;20043;-82
2023/01/17 12:30:36;;;;;;;6.70;2.72;;;;;;;;;;5100253;28;20348;-82
2023/01/17 12:33:07;;;;;;;4.43;2.20;;;;;;;;;;5102945;28;20566;-82
2023/01/17 12:35:42;;;;;;;5.40;2.40;;;;;;;;;;5093220;28;20020;-82
2023/01/17 12:38:11;;;;;;;4.95;2.10;;;;;;;;;;5094107;28;20066;-81
2023/01/17 12:40:48;;;;;;;4.03;1.83;;;;;;;;;;5092259;28;20480;-81
2023/01/17 12:43:38;;;;;;;4.28;1.92;;;;;;;;;;5102921;28;20060;-82
2023/01/17 12:46:13;;;;;;;3.92;2.00;;;;;;;;;;5106508;28;20028;-81
2023/01/17 12:48:39;;;;;;;5.93;2.10;;;;;;;;;;5097657;28;20024;-82
2023/01/17 12:51:15;;;;;;;5.05;2.15;;;;;;;;;;5104435;28;20024;-82
2023/01/17 12:53:51;;;;;;;6.50;2.00;;;;;;;;;;5099150;28;20020;-82
2023/01/17 12:56:38;;;;;;;4.30;2.05;;;;;;;;;;5098067;28;20057;-81
2023/01/17 12:59:16;;;;;;;3.92;1.90;;;;;;;;;;5091218;28;20027;-82
2023/01/17 13:01:56;;;;;;;4.57;2.03;;;;;;;;;;5096521;28;20023;-82
2023/01/17 13:04:40;;;;;;;3.38;1.67;;;;;;;;;;5100094;28;20452;-82
2023/01/17 13:07:31;;;;;;;5.82;1.52;;;;;;;;;;5103282;28;20028;-82
2023/01/17 13:10:14;;;;;;;3.03;1.50;;;;;;;;;;5103760;28;20506;-82
2023/01/17 13:12:40;;;;;;;3.28;1.60;;;;;;;;;;5098415;27;20047;-81
2023/01/17 13:15:17;;;;;;;2.35;1.33;;;;;;;;;;5101427;28;20104;-82
2023/01/17 13:17:55;;;;;;;2.35;1.17;;;;;;;;;;5094903;28;20016;-82
2023/01/17 13:20:43;;;;;;;2.35;1.20;;;;;;;;;;5098014;28;20028;-82
2023/01/17 13:23:29;;;;;;;2.35;1.08;;;;;;;;;;5097472;28;20073;-82
2023/01/17 13:25:57;;;;;;;3.22;1.10;;;;;;;;;;5100351;28;20507;-82
2023/01/17 13:28:35;;;;;;;1.88;0.80;;;;;;;;;;5094350;28;20078;-81
2023/01/17 13:31:18;;;;;;;2.47;1.00;;;;;;;;;;5097832;28;20475;-81
2023/01/17 13:34:11;;;;;;;1.20;0.60;;;;;;;;;;5097551;28;20495;-82
2023/01/17 13:37:38;;;;;;;1.80;0.80;;;;;;;;;;5101003;28;20454;-82
2023/01/17 13:40:45;;;;;;;1.95;0.93;;;;;;;;;;4987025;28;20478;-81
2023/01/17 13:43:17;;;;;;;1.65;0.95;;;;;;;;;;5092511;28;20385;-82
2023/01/17 13:45:54;;;;;;;1.85;0.93;;;;;;;;;;5096443;28;20024;-82
2023/01/17 13:48:20;;;;;;;2.08;0.98;;;;;;;;;;5095378;28;20031;-81
2023/01/17 13:50:58;;;;;;;2.83;0.80;;;;;;;;;;5091662;28;20031;-82
2023/01/17 13:53:33;;;;;;;2.58;0.75;;;;;;;;;;5094492;28;20051;-82
2023/01/17 13:56:23;;;;;;;1.55;0.80;;;;;;;;;;5094831;28;20063;-82
2023/01/17 14:01:23;;;;;;;1.40;0.70;;;;;;;;;;5095485;28;20028;-81
2023/01/17 14:03:51;;;;;;;3.67;0.73;;;;;;;;;;5093593;28;20043;-81
2023/01/17 14:06:29;;;;;;;1.17;0.60;;;;;;;;;;5089108;28;20077;-81
2023/01/17 14:09:18;;;;;;;2.60;0.65;;;;;;;;;;5089505;27;20093;-82
2023/01/17 14:12:02;;;;;;;3.88;0.50;;;;;;;;;;5093870;27;20027;-81
2023/01/17 14:14:49;;;;;;;2.42;0.60;;;;;;;;;;5092978;28;20081;-82
2023/01/17 14:17:27;;;;;;;0.50;0.30;;;;;;;;;;5093050;28;20480;-82
2023/01/17 14:19:55;;;;;;;2.35;0.65;;;;;;;;;;5091956;28;20499;-82
2023/01/17 14:22:30;;;;;;;1.15;0.60;;;;;;;;;;5095619;28;20484;-81
2023/01/17 14:25:10;;;;;;;1.38;0.70;;;;;;;;;;5095784;28;20415;-81
2023/01/17 14:27:48;;;;;;;1.00;0.50;;;;;;;;;;5093846;28;20035;-82
2023/01/17 14:30:27;;;;;;;2.30;0.57;;;;;;;;;;5096613;28;20097;-82
2023/01/17 14:33:01;;;;;;;1.42;0.75;;;;;;;;;;5099043;28;20042;-82
2023/01/17 14:35:28;;;;;;;1.80;0.88;;;;;;;;;;5092230;28;20032;-81
2023/01/17 14:37:56;;;;;;;2.10;0.60;;;;;;;;;;5094937;28;20028;-81
2023/01/17 14:40:29;;;;;;;2.03;0.70;;;;;;;;;;5099664;28;20130;-82
2023/01/17 14:43:09;;;;;;;1.58;0.68;;;;;;;;;;5093297;28;20554;-82
2023/01/17 14:45:36;;;;;;;1.02;0.60;;;;;;;;;;5092507;28;20484;-82
2023/01/17 14:48:04;;;;;;;1.55;0.80;;;;;;;;;;5087150;28;20518;-82
2023/01/17 14:50:41;;;;;;;1.77;0.80;;;;;;;;;;5094298;28;20023;-82
2023/01/17 14:53:12;;;;;;;1.75;0.80;;;;;;;;;;5098344;28;20083;-82
2023/01/17 14:55:49;;;;;;;1.63;0.88;;;;;;;;;;5093036;28;20027;-82
2023/01/17 14:58:20;;;;;;;2.05;0.82;;;;;;;;;;5095893;28;20394;-82
2023/01/17 15:00:48;;;;;;;2.25;0.75;;;;;;;;;;5091252;28;20111;-82
2023/01/17 15:03:14;;;;;;;1.50;0.80;;;;;;;;;;5092362;28;20028;-82
2023/01/17 15:05:42;;;;;;;1.77;0.88;;;;;;;;;;5087462;28;20035;-82
2023/01/17 15:08:13;;;;;;;1.67;0.93;;;;;;;;;;5092098;28;20518;-81
2023/01/17 15:11:06;;;;;;;2.67;0.77;;;;;;;;;;5094061;28;20773;-82
2023/01/17 15:13:34;;;;;;;1.50;0.80;;;;;;;;;;5092269;28;20042;-82
2023/01/17 15:16:20;;;;;;;2.08;0.80;;;;;;;;;;5091512;28;20040;-81
2023/01/17 15:18:45;;;;;;;2.60;0.80;;;;;;;;;;5090765;28;20500;-82
2023/01/17 15:21:16;;;;;;;2.45;0.88;;;;;;;;;;5094499;28;20038;-82
2023/01/17 15:24:03;;;;;;;2.13;1.20;;;;;;;;;;5106735;28;20057;-82
2023/01/17 15:26:41;;;;;;;1.88;0.93;;;;;;;;;;5100896;28;20588;-82
2023/01/17 15:29:14;;;;;;;1.95;0.70;;;;;;;;;;5099787;28;20033;-82
2023/01/17 15:31:53;;;;;;;1.80;0.90;;;;;;;;;;5091323;28;20034;-82
2023/01/17 15:34:29;;;;;;;1.75;0.80;;;;;;;;;;5099803;28;20075;-82
2023/01/17 15:36:58;;;;;;;2.22;0.90;;;;;;;;;;5091722;28;20054;-82
2023/01/17 15:39:29;;;;;;;2.60;0.90;;;;;;;;;;5094428;28;20027;-82
2023/01/17 15:41:59;;;;;;;2.47;0.90;;;;;;;;;;5096720;28;20027;-82
2023/01/17 15:44:27;;;;;;;2.53;0.90;;;;;;;;;;5098673;28;20384;-82
2023/01/17 15:46:54;;;;;;;2.67;1.10;;;;;;;;;;5097768;28;20077;-82
2023/01/17 15:49:21;;;;;;;1.50;0.85;;;;;;;;;;5100647;28;20101;-82
2023/01/17 15:51:56;;;;;;;3.28;1.00;;;;;;;;;;5083287;28;20035;-82
2023/01/17 15:54:33;;;;;;;1.80;1.00;;;;;;;;;;5102132;28;20053;-82
2023/01/17 15:57:04;;;;;;;2.70;1.13;;;;;;;;;;5097149;28;20033;-82
2023/01/17 15:59:41;;;;;;;3.05;1.20;;;;;;;;;;5100089;28;20032;-82
2023/01/17 16:02:24;;;;;;;3.03;1.30;;;;;;;;;;5097240;28;20081;-82
2023/01/17 16:04:50;;;;;;;2.40;1.10;;;;;;;;;;5094023;28;20065;-82
2023/01/17 16:07:19;;;;;;;2.30;1.30;;;;;;;;;;5098614;28;20572;-82
2023/01/17 16:09:45;;;;;;;3.58;1.42;;;;;;;;;;5097742;28;20035;-82
2023/01/17 16:12:11;;;;;;;2.97;1.42;;;;;;;;;;5103998;27;20023;-82
2023/01/17 16:14:36;;;;;;;3.03;1.58;;;;;;;;;;5098950;28;20498;-82
2023/01/17 16:17:02;;;;;;;2.83;1.30;;;;;;;;;;5093796;28;20020;-82
2023/01/17 16:19:28;;;;;;;2.15;1.23;;;;;;;;;;5097057;28;20418;-82
2023/01/17 16:21:55;;;;;;;2.50;1.33;;;;;;;;;;5098663;28;20156;-82
2023/01/17 16:24:22;;;;;;;1.95;1.08;;;;;;;;;;5102212;28;20046;-82
2023/01/17 16:26:47;;;;;;;2.83;1.27;;;;;;;;;;5093574;28;20031;-82
2023/01/17 16:29:12;;;;;;;2.35;1.20;;;;;;;;;;5094745;28;20155;-82
2023/01/17 16:31:38;;;;;;;4.40;1.50;;;;;;;;;;5096056;28;20114;-82
2023/01/17 16:34:11;;;;;;;4.13;1.88;;;;;;;;;;5096539;28;20016;-82
2023/01/17 16:36:37;;;;;;;5.53;2.70;;;;;;;;;;5096600;28;20387;-82